sensor_id;sensor_type;location;lat;lon;timestamp;pressure;altitude;pressure_sealevel;temperature;humidity
50087;BME280;35967;50.718;7.050;2023-07-29T00:07:39;99978.69;;;19.71;100.00
50087;BME280;35967;50.718;7.050;2023-07-29T00:17:42;99972.63;;;19.71;100.00
50087;BME280;35967;50.718;7.050;2023-07-29T00:27:46;99959.38;;;19.74;100.00
50087;BME280;35967;50.718;7.050;2023-07-29T00:37:49;99954.47;;;19.69;100.00
50087;BME280;35967;50.718;7.050;2023-07-29T00:47:54;99943.63;;;19.63;100.00
50087;BME280;35967;50.718;7.050;2023-07-29T00:57:57;99944.03;;;19.69;100.00
50087;BME280;35967;50.718;7.050;2023-07-29T01:08:06;99936.47;;;19.78;100.00
50087;BME280;35967;50.718;7.050;2023-07-29T01:18:17;99923.84;;;19.71;100.00
50087;BME280;35967;50.718;7.050;2023-07-29T01:28:22;99916.63;;;19.75;100.00
50087;BME280;35967;50.718;7.050;2023-07-29T01:38:29;99917.75;;;19.84;100.00
50087;BME280;35967;50.718;7.050;2023-07-29T01:48:36;99922.75;;;19.87;100.00
50087;BME280;35967;50.718;7.050;2023-07-29T01:58:39;99908.88;;;19.86;100.00
50087;BME280;35967;50.718;7.050;2023-07-29T02:08:43;99901.69;;;19.77;100.00
50087;BME280;35967;50.718;7.050;2023-07-29T02:18:46;99897.72;;;19.71;100.00
50087;BME280;35967;50.718;7.050;2023-07-29T02:28:51;99885.00;;;19.67;100.00
50087;BME280;35967;50.718;7.050;2023-07-29T02:38:55;99894.97;;;19.62;100.00
50087;BME280;35967;50.718;7.050;2023-07-29T02:49:01;99903.34;;;19.78;100.00
50087;BME280;35967;50.718;7.050;2023-07-29T02:59:04;99920.88;;;19.65;100.00
50087;BME280;35967;50.718;7.050;2023-07-29T03:09:09;99898.84;;;19.56;100.00
50087;BME280;35967;50.718;7.050;2023-07-29T03:19:12;99908.19;;;19.10;100.00
50087;BME280;35967;50.718;7.050;2023-07-29T03:29:17;99923.63;;;19.00;100.00
50087;BME280;35967;50.718;7.050;2023-07-29T03:39:20;99927.50;;;18.69;100.00
50087;BME280;35967;50.718;7.050;2023-07-29T03:49:25;99923.00;;;18.71;100.00
50087;BME280;35967;50.718;7.050;2023-07-29T03:59:28;99903.91;;;18.57;100.00
50087;BME280;35967;50.718;7.050;2023-07-29T04:09:32;99928.94;;;18.73;100.00
50087;BME280;35967;50.718;7.050;2023-07-29T04:19:35;99926.25;;;18.62;100.00
50087;BME280;35967;50.718;7.050;2023-07-29T04:29:40;99927.06;;;18.49;100.00
50087;BME280;35967;50.718;7.050;2023-07-29T04:39:43;99924.16;;;18.54;100.00
50087;BME280;35967;50.718;7.050;2023-07-29T04:49:48;99925.50;;;18.72;100.00
50087;BME280;35967;50.718;7.050;2023-07-29T04:59:51;99943.84;;;18.71;100.00
50087;BME280;35967;50.718;7.050;2023-07-29T05:09:56;99936.88;;;18.84;100.00
50087;BME280;35967;50.718;7.050;2023-07-29T05:19:59;99941.19;;;18.98;100.00
50087;BME280;35967;50.718;7.050;2023-07-29T05:30:05;99933.38;;;18.98;100.00
50087;BME280;35967;50.718;7.050;2023-07-29T05:40:09;99956.72;;;19.13;100.00
50087;BME280;35967;50.718;7.050;2023-07-29T05:50:15;99949.06;;;19.22;100.00
50087;BME280;35967;50.718;7.050;2023-07-29T06:00:19;99965.22;;;19.28;100.00
50087;BME280;35967;50.718;7.050;2023-07-29T06:10:24;99990.38;;;19.29;100.00
50087;BME280;35967;50.718;7.050;2023-07-29T06:20:27;99997.56;;;19.38;100.00
50087;BME280;35967;50.718;7.050;2023-07-29T06:30:32;100003.81;;;19.61;100.00
50087;BME280;35967;50.718;7.050;2023-07-29T06:40:35;100017.53;;;19.76;100.00
50087;BME280;35967;50.718;7.050;2023-07-29T06:50:40;100008.03;;;19.75;100.00
50087;BME280;35967;50.718;7.050;2023-07-29T07:00:43;100009.69;;;19.89;100.00
50087;BME280;35967;50.718;7.050;2023-07-29T07:10:47;100026.47;;;20.46;100.00
50087;BME280;35967;50.718;7.050;2023-07-29T07:20:50;100042.03;;;20.48;100.00
50087;BME280;35967;50.718;7.050;2023-07-29T07:30:55;100040.75;;;20.29;100.00
50087;BME280;35967;50.718;7.050;2023-07-29T07:40:58;100047.78;;;20.64;100.00
50087;BME280;35967;50.718;7.050;2023-07-29T07:51:10;100055.19;;;20.71;100.00
50087;BME280;35967;50.718;7.050;2023-07-29T08:01:14;100037.69;;;21.18;100.00
50087;BME280;35967;50.718;7.050;2023-07-29T08:11:19;100050.06;;;21.16;100.00
50087;BME280;35967;50.718;7.050;2023-07-29T08:21:21;100046.38;;;21.07;100.00
50087;BME280;35967;50.718;7.050;2023-07-29T08:31:26;100056.25;;;21.26;100.00
50087;BME280;35967;50.718;7.050;2023-07-29T08:41:31;100071.38;;;21.23;98.30
50087;BME280;35967;50.718;7.050;2023-07-29T08:51:38;100076.91;;;20.71;95.95
50087;BME280;35967;50.718;7.050;2023-07-29T09:01:42;100075.47;;;20.31;93.76
50087;BME280;35967;50.718;7.050;2023-07-29T09:11:46;100083.81;;;20.12;91.36
50087;BME280;35967;50.718;7.050;2023-07-29T09:21:50;100089.47;;;20.06;91.41
50087;BME280;35967;50.718;7.050;2023-07-29T09:42:18;100080.91;;;20.28;93.48
50087;BME280;35967;50.718;7.050;2023-07-29T09:52:24;100088.53;;;20.31;92.15
50087;BME280;35967;50.718;7.050;2023-07-29T10:02:27;100088.13;;;20.25;92.88
50087;BME280;35967;50.718;7.050;2023-07-29T10:12:34;100094.66;;;20.43;93.90
50087;BME280;35967;50.718;7.050;2023-07-29T10:22:39;100124.56;;;20.39;94.44
50087;BME280;35967;50.718;7.050;2023-07-29T10:32:45;100116.34;;;19.95;100.00
50087;BME280;35967;50.718;7.050;2023-07-29T10:43:01;100132.66;;;19.73;100.00
50087;BME280;35967;50.718;7.050;2023-07-29T10:53:07;100135.47;;;19.57;100.00
50087;BME280;35967;50.718;7.050;2023-07-29T11:03:12;100117.81;;;19.48;100.00
50087;BME280;35967;50.718;7.050;2023-07-29T11:13:17;100097.47;;;19.66;100.00
50087;BME280;35967;50.718;7.050;2023-07-29T11:23:20;100109.53;;;20.06;100.00
50087;BME280;35967;50.718;7.050;2023-07-29T11:33:31;100104.91;;;20.09;100.00
50087;BME280;35967;50.718;7.050;2023-07-29T11:43:35;100105.16;;;20.06;100.00
50087;BME280;35967;50.718;7.050;2023-07-29T11:53:42;100069.50;;;20.29;100.00
50087;BME280;35967;50.718;7.050;2023-07-29T12:03:45;100064.81;;;22.41;95.64
50087;BME280;35967;50.718;7.050;2023-07-29T12:13:53;100055.66;;;25.57;79.42
50087;BME280;35967;50.718;7.050;2023-07-29T12:23:56;100050.75;;;24.77;79.87
50087;BME280;35967;50.718;7.050;2023-07-29T12:34:02;100037.97;;;29.11;53.26
50087;BME280;35967;50.718;7.050;2023-07-29T12:44:06;100027.19;;;30.39;52.38
50087;BME280;35967;50.718;7.050;2023-07-29T12:54:10;100011.63;;;27.53;60.96
50087;BME280;35967;50.718;7.050;2023-07-29T13:04:13;100020.78;;;26.71;62.95
50087;BME280;35967;50.718;7.050;2023-07-29T13:14:17;100014.19;;;24.44;72.79
50087;BME280;35967;50.718;7.050;2023-07-29T13:24:21;100012.06;;;23.79;77.44
50087;BME280;35967;50.718;7.050;2023-07-29T13:34:25;100001.94;;;23.24;80.39
50087;BME280;35967;50.718;7.050;2023-07-29T13:44:28;100021.25;;;22.92;85.65
50087;BME280;35967;50.718;7.050;2023-07-29T13:54:33;100019.97;;;23.07;86.81
50087;BME280;35967;50.718;7.050;2023-07-29T14:04:36;100028.47;;;22.68;84.86
50087;BME280;35967;50.718;7.050;2023-07-29T14:14:41;100022.88;;;22.41;90.17
50087;BME280;35967;50.718;7.050;2023-07-29T14:24:44;100024.00;;;22.15;93.47
50087;BME280;35967;50.718;7.050;2023-07-29T14:34:48;100027.56;;;21.82;89.92
50087;BME280;35967;50.718;7.050;2023-07-29T14:44:51;100035.31;;;21.83;91.61
50087;BME280;35967;50.718;7.050;2023-07-29T14:54:56;100029.72;;;21.77;90.79
50087;BME280;35967;50.718;7.050;2023-07-29T15:04:59;100037.34;;;21.46;89.91
50087;BME280;35967;50.718;7.050;2023-07-29T15:15:05;100035.91;;;21.30;90.25
50087;BME280;35967;50.718;7.050;2023-07-29T15:25:09;100054.59;;;21.14;90.22
50087;BME280;35967;50.718;7.050;2023-07-29T15:35:13;100063.25;;;21.03;91.50
50087;BME280;35967;50.718;7.050;2023-07-29T15:45:17;100091.16;;;20.80;94.57
50087;BME280;35967;50.718;7.050;2023-07-29T15:55:21;100096.72;;;20.27;100.00
50087;BME280;35967;50.718;7.050;2023-07-29T16:05:24;100064.34;;;20.16;100.00
50087;BME280;35967;50.718;7.050;2023-07-29T16:15:28;100079.97;;;20.05;100.00
50087;BME280;35967;50.718;7.050;2023-07-29T16:25:31;100067.19;;;20.13;100.00
50087;BME280;35967;50.718;7.050;2023-07-29T16:35:36;100074.97;;;19.89;100.00
50087;BME280;35967;50.718;7.050;2023-07-29T16:45:40;100051.56;;;20.00;100.00
50087;BME280;35967;50.718;7.050;2023-07-29T16:55:45;100047.38;;;19.98;100.00
50087;BME280;35967;50.718;7.050;2023-07-29T17:05:48;100047.56;;;20.08;100.00
50087;BME280;35967;50.718;7.050;2023-07-29T17:15:54;100038.16;;;20.05;100.00
50087;BME280;35967;50.718;7.050;2023-07-29T17:25:57;100042.66;;;20.03;100.00
50087;BME280;35967;50.718;7.050;2023-07-29T17:36:02;100026.47;;;20.22;100.00
50087;BME280;35967;50.718;7.050;2023-07-29T17:46:05;100031.25;;;20.28;100.00
50087;BME280;35967;50.718;7.050;2023-07-29T17:56:09;100044.22;;;20.30;100.00
50087;BME280;35967;50.718;7.050;2023-07-29T18:06:12;100049.28;;;20.20;100.00
50087;BME280;35967;50.718;7.050;2023-07-29T18:16:17;100037.72;;;20.11;100.00
50087;BME280;35967;50.718;7.050;2023-07-29T18:26:22;100040.88;;;20.28;100.00
50087;BME280;35967;50.718;7.050;2023-07-29T18:36:26;100045.91;;;20.31;100.00
50087;BME280;35967;50.718;7.050;2023-07-29T18:46:30;100046.50;;;20.35;100.00
50087;BME280;35967;50.718;7.050;2023-07-29T18:56:35;100058.16;;;20.17;100.00
50087;BME280;35967;50.718;7.050;2023-07-29T19:06:39;100070.50;;;20.15;100.00
50087;BME280;35967;50.718;7.050;2023-07-29T19:16:43;100077.63;;;20.13;100.00
50087;BME280;35967;50.718;7.050;2023-07-29T19:26:46;100091.38;;;19.91;100.00
50087;BME280;35967;50.718;7.050;2023-07-29T19:36:51;100095.13;;;20.00;100.00
50087;BME280;35967;50.718;7.050;2023-07-29T19:46:54;100093.16;;;19.78;100.00
50087;BME280;35967;50.718;7.050;2023-07-29T19:56:59;100087.97;;;19.65;100.00
50087;BME280;35967;50.718;7.050;2023-07-29T20:07:02;100082.63;;;19.53;100.00
50087;BME280;35967;50.718;7.050;2023-07-29T20:17:07;100088.09;;;19.50;100.00
50087;BME280;35967;50.718;7.050;2023-07-29T20:27:10;100074.13;;;19.38;100.00
50087;BME280;35967;50.718;7.050;2023-07-29T20:37:14;100082.44;;;19.18;100.00
50087;BME280;35967;50.718;7.050;2023-07-29T20:47:17;100087.56;;;19.06;100.00
50087;BME280;35967;50.718;7.050;2023-07-29T20:57:22;100092.25;;;19.01;100.00
50087;BME280;35967;50.718;7.050;2023-07-29T21:07:25;100113.03;;;18.88;100.00
50087;BME280;35967;50.718;7.050;2023-07-29T21:17:30;100119.81;;;18.78;100.00
50087;BME280;35967;50.718;7.050;2023-07-29T21:27:33;100122.34;;;18.52;100.00
50087;BME280;35967;50.718;7.050;2023-07-29T21:37:37;100123.09;;;18.67;100.00
50087;BME280;35967;50.718;7.050;2023-07-29T21:47:40;100137.91;;;18.67;100.00
50087;BME280;35967;50.718;7.050;2023-07-29T21:57:45;100155.38;;;18.52;100.00
50087;BME280;35967;50.718;7.050;2023-07-29T22:07:48;100172.53;;;18.41;100.00
50087;BME280;35967;50.718;7.050;2023-07-29T22:17:53;100179.78;;;18.36;100.00
50087;BME280;35967;50.718;7.050;2023-07-29T22:27:56;100188.84;;;18.31;100.00
50087;BME280;35967;50.718;7.050;2023-07-29T22:38:00;100190.53;;;18.17;100.00
50087;BME280;35967;50.718;7.050;2023-07-29T22:48:04;100196.38;;;18.21;100.00
50087;BME280;35967;50.718;7.050;2023-07-29T22:58:09;100212.13;;;18.05;100.00
50087;BME280;35967;50.718;7.050;2023-07-29T23:08:12;100216.69;;;18.01;100.00
50087;BME280;35967;50.718;7.050;2023-07-29T23:18:17;100214.22;;;17.69;100.00
50087;BME280;35967;50.718;7.050;2023-07-29T23:28:20;100212.28;;;17.87;100.00
50087;BME280;35967;50.718;7.050;2023-07-29T23:38:24;100211.13;;;17.91;100.00
50087;BME280;35967;50.718;7.050;2023-07-29T23:48:27;100213.44;;;17.97;100.00
50087;BME280;35967;50.718;7.050;2023-07-29T23:58:32;100218.69;;;17.81;100.00
